Time;durP1;ratioP1;P1;durP2;ratioP2;P2;SDS_P1;SDS_P2;PMS_P1;PMS_P2;Temp;Humidity;BMP_temperature;BMP_pressure;BME280_temperature;BME280_humidity;BME280_pressure;Samples;Min_cycle;Max_cycle;Signal;HPM_P1;HPM_P2
2023/08/27 00:01:18;;;;;;;13.23;10.80;;;14.60;48.30;;;;;;5113270;28;20190;-51
2023/08/27 00:03:44;;;;;;;12.10;9.17;;;14.60;99.90;;;;;;5113229;28;20411;-50
2023/08/27 00:06:10;;;;;;;13.93;9.27;;;14.70;99.90;;;;;;5113007;28;20179;-50
2023/08/27 00:08:35;;;;;;;11.17;9.97;;;14.60;99.90;;;;;;5113402;28;20594;-50
2023/08/27 00:11:03;;;;;;;10.43;8.83;;;14.60;99.90;;;;;;5113374;28;20206;-50
2023/08/27 00:13:29;;;;;;;11.23;9.60;;;14.60;99.90;;;;;;5113391;28;20184;-54
2023/08/27 00:15:54;;;;;;;11.00;9.10;;;14.60;99.90;;;;;;5113672;28;20436;-50
2023/08/27 00:18:20;;;;;;;14.60;9.70;;;14.60;99.90;;;;;;5113104;28;20175;-50
2023/08/27 00:20:46;;;;;;;13.07;9.60;;;14.60;99.90;;;;;;5112751;28;20211;-51
2023/08/27 00:23:12;;;;;;;15.20;10.83;;;14.60;99.90;;;;;;5112551;28;20231;-51
2023/08/27 00:25:38;;;;;;;13.43;9.80;;;14.70;99.90;;;;;;5112809;28;20467;-51
2023/08/27 00:28:04;;;;;;;11.87;9.80;;;14.70;99.90;;;;;;5112674;28;20183;-50
2023/08/27 00:30:30;;;;;;;13.43;9.50;;;14.70;99.90;;;;;;5112291;28;20413;-50
2023/08/27 00:32:55;;;;;;;15.50;9.80;;;14.80;99.90;;;;;;5113168;28;20187;-51
2023/08/27 00:35:21;;;;;;;10.70;9.30;;;14.80;99.90;;;;;;5113064;28;20179;-51
2023/08/27 00:37:46;;;;;;;11.10;9.00;;;14.80;99.90;;;;;;5113100;28;20232;-51
2023/08/27 00:40:13;;;;;;;13.13;11.40;;;14.80;99.90;;;;;;5112779;28;20212;-50
2023/08/27 00:42:38;;;;;;;14.63;9.83;;;14.80;99.90;;;;;;5112310;28;20184;-51
2023/08/27 00:45:04;;;;;;;11.70;9.03;;;14.70;99.90;;;;;;5112721;28;20413;-51
2023/08/27 00:47:31;;;;;;;12.60;9.00;;;14.70;99.90;;;;;;5112369;28;20228;-51
2023/08/27 00:49:57;;;;;;;10.37;8.70;;;14.70;99.90;;;;;;5112638;28;20429;-50
2023/08/27 00:52:23;;;;;;;9.60;8.60;;;14.60;99.90;;;;;;5112428;28;20418;-51
2023/08/27 00:54:50;;;;;;;12.50;9.37;;;14.60;99.90;;;;;;5112066;28;20499;-51
2023/08/27 00:57:18;;;;;;;14.37;10.27;;;14.60;99.90;;;;;;5112003;28;20442;-50
2023/08/27 00:59:45;;;;;;;13.27;9.63;;;14.60;99.90;;;;;;5112127;28;20465;-51
2023/08/27 01:02:11;;;;;;;11.40;9.43;;;14.50;99.90;;;;;;5112814;28;20414;-51
2023/08/27 01:04:37;;;;;;;13.50;9.37;;;14.50;99.90;;;;;;5113695;28;20440;-51
2023/08/27 01:07:13;;;;;;;14.70;8.90;;;14.50;99.90;;;;;;5113546;28;20213;-51
2023/08/27 01:10:16;;;;;;;11.57;8.87;;;14.40;99.90;;;;;;5113874;28;20220;-50
2023/08/27 01:13:02;;;;;;;14.23;12.10;;;14.40;99.90;;;;;;5098920;28;20439;-50
2023/08/27 01:15:29;;;;;;;22.53;17.30;;;14.40;99.90;;;;;;5113819;28;20467;-50
2023/08/27 01:17:58;;;;;;;20.43;13.03;;;14.40;99.90;;;;;;5113593;28;20425;-51
2023/08/27 01:20:24;;;;;;;12.50;9.57;;;14.40;99.90;;;;;;5113182;28;21044;-51
2023/08/27 01:22:50;;;;;;;12.17;10.07;;;14.50;99.90;;;;;;5113519;28;20500;-51
2023/08/27 01:25:20;;;;;;;9.80;8.80;;;14.50;99.90;;;;;;5095220;28;20645;-51
2023/08/27 01:27:57;;;;;;;12.63;10.20;;;14.60;99.90;;;;;;5113743;28;20258;-51
2023/08/27 01:30:24;;;;;;;10.27;8.40;;;14.60;99.90;;;;;;5114093;28;20393;-50
2023/08/27 01:33:02;;;;;;;14.27;9.43;;;14.70;99.90;;;;;;5113572;28;20466;-51
2023/08/27 01:35:30;;;;;;;10.63;8.47;;;14.70;99.90;;;;;;5116412;28;20959;-52
2023/08/27 01:37:56;;;;;;;10.60;9.50;;;14.70;99.90;;;;;;5117885;28;20418;-51
2023/08/27 01:40:22;;;;;;;10.17;8.70;;;14.70;99.90;;;;;;5117424;28;20517;-51
2023/08/27 01:42:47;;;;;;;17.50;12.90;;;14.70;99.90;;;;;;5117033;28;20417;-51
2023/08/27 01:45:13;;;;;;;18.87;12.20;;;14.70;99.90;;;;;;5117637;28;20183;-51
2023/08/27 01:47:39;;;;;;;16.40;10.77;;;14.70;99.90;;;;;;5117274;28;20644;-51
2023/08/27 01:50:05;;;;;;;23.83;16.73;;;14.70;99.90;;;;;;5117629;28;20187;-50
2023/08/27 01:52:31;;;;;;;21.60;16.37;;;14.70;99.90;;;;;;5117339;28;20532;-51
2023/08/27 01:54:57;;;;;;;16.20;11.80;;;14.70;99.90;;;;;;5117293;28;20446;-51
2023/08/27 01:57:22;;;;;;;14.07;10.50;;;14.70;99.90;;;;;;5117062;28;20516;-51
2023/08/27 01:59:48;;;;;;;15.23;13.00;;;14.60;99.90;;;;;;5117493;28;20207;-51
2023/08/27 02:02:14;;;;;;;25.43;19.97;;;14.60;99.90;;;;;;5116917;28;20643;-51
2023/08/27 02:04:39;;;;;;;21.00;16.87;;;14.60;99.90;;;;;;5117022;28;20171;-51
2023/08/27 02:07:05;;;;;;;14.13;12.50;;;14.50;99.90;;;;;;5116814;28;20206;-51
2023/08/27 02:09:30;;;;;;;21.27;18.03;;;14.50;99.90;;;;;;5116817;28;20263;-50
2023/08/27 02:11:56;;;;;;;18.07;12.60;;;14.40;99.90;;;;;;5117098;28;20179;-50
2023/08/27 02:14:21;;;;;;;21.87;17.33;;;14.40;99.90;;;;;;5116938;28;20187;-51
2023/08/27 02:16:47;;;;;;;22.33;16.97;;;14.30;99.90;;;;;;5116929;28;20187;-51
2023/08/27 02:19:13;;;;;;;18.00;14.33;;;14.20;99.90;;;;;;5116511;28;20211;-51
2023/08/27 02:21:38;;;;;;;26.33;17.60;;;14.20;99.90;;;;;;5116759;28;20230;-50
2023/08/27 02:24:04;;;;;;;36.90;24.80;;;14.10;99.90;;;;;;5116759;28;20170;-50
2023/08/27 02:26:29;;;;;;;32.83;21.70;;;14.10;99.90;;;;;;5116618;28;20239;-51
2023/08/27 02:28:55;;;;;;;28.00;18.20;;;14.00;99.90;;;;;;5116926;28;20216;-51
2023/08/27 02:31:21;;;;;;;22.27;14.33;;;14.00;99.90;;;;;;5116647;28;20176;-50
2023/08/27 02:33:46;;;;;;;16.67;11.80;;;13.90;99.90;;;;;;5116642;28;20259;-50
2023/08/27 02:36:12;;;;;;;18.10;13.23;;;13.90;99.90;;;;;;5116179;28;20554;-51
2023/08/27 02:38:41;;;;;;;22.67;15.87;;;13.80;99.90;;;;;;5116544;28;20180;-50
2023/08/27 02:41:06;;;;;;;14.80;11.10;;;13.80;99.90;;;;;;5116422;28;20227;-50
2023/08/27 02:43:32;;;;;;;15.57;10.10;;;13.80;99.90;;;;;;5116376;28;20437;-50
2023/08/27 02:45:58;;;;;;;13.70;9.57;;;13.80;99.90;;;;;;5116245;28;20183;-51
2023/08/27 02:48:24;;;;;;;50.33;42.00;;;13.80;99.90;;;;;;5116532;28;20223;-51
2023/08/27 02:50:50;;;;;;;32.70;25.17;;;13.80;99.90;;;;;;5116492;28;20424;-50
2023/08/27 02:53:16;;;;;;;23.87;17.60;;;13.80;99.90;;;;;;5116416;28;20407;-51
2023/08/27 02:55:41;;;;;;;13.33;11.60;;;13.70;99.90;;;;;;5115963;28;20762;-51
2023/08/27 02:58:07;;;;;;;15.20;13.50;;;13.70;99.90;;;;;;5116269;28;20204;-50
2023/08/27 03:00:32;;;;;;;17.63;13.43;;;13.70;99.90;;;;;;5116488;28;20219;-51
2023/08/27 03:02:58;;;;;;;22.10;18.40;;;13.70;99.90;;;;;;5115427;28;20316;-50
2023/08/27 03:05:24;;;;;;;61.83;50.70;;;13.70;99.90;;;;;;5115754;28;20174;-50
2023/08/27 03:07:49;;;;;;;51.87;39.93;;;13.70;99.90;;;;;;5115749;28;20651;-51
2023/08/27 03:10:15;;;;;;;98.77;70.20;;;13.70;99.90;;;;;;5115920;28;20191;-49
2023/08/27 03:12:41;;;;;;;47.23;36.50;;;13.70;99.90;;;;;;5115600;28;20180;-50
2023/08/27 03:15:07;;;;;;;29.63;22.13;;;13.70;99.90;;;;;;5116084;28;20414;-50
2023/08/27 03:17:32;;;;;;;47.93;31.30;;;13.60;99.90;;;;;;5115630;28;20179;-50
2023/08/27 03:19:58;;;;;;;34.07;24.80;;;13.60;99.90;;;;;;5115529;28;20480;-51
2023/08/27 03:22:23;;;;;;;72.97;42.37;;;13.60;99.90;;;;;;5115248;28;20709;-50
2023/08/27 03:24:49;;;;;;;110.10;59.23;;;13.60;99.90;;;;;;5115401;28;20180;-50
2023/08/27 03:27:15;;;;;;;114.20;59.80;;;13.50;99.90;;;;;;5115407;28;20547;-49
2023/08/27 03:29:40;;;;;;;75.90;48.10;;;13.50;99.90;;;;;;5115647;28;20271;-51
2023/08/27 03:32:06;;;;;;;89.23;51.10;;;13.50;99.90;;;;;;5115088;28;20587;-50
2023/08/27 03:34:32;;;;;;;90.93;49.70;;;13.50;99.90;;;;;;5115369;28;20183;-50
2023/08/27 03:36:58;;;;;;;153.00;89.53;;;13.40;99.90;;;;;;5115163;28;20195;-49
2023/08/27 03:39:24;;;;;;;79.63;50.03;;;13.40;99.90;;;;;;5115270;28;20460;-49
2023/08/27 03:41:49;;;;;;;152.70;92.63;;;13.40;99.90;;;;;;5115065;28;20195;-50
2023/08/27 03:44:15;;;;;;;87.43;57.80;;;13.40;99.90;;;;;;5115004;28;20187;-50
2023/08/27 03:46:41;;;;;;;95.90;56.37;;;13.40;99.90;;;;;;5115199;28;20180;-50
2023/08/27 03:49:06;;;;;;;113.27;56.53;;;13.30;99.90;;;;;;5114666;28;20190;-51
2023/08/27 03:51:32;;;;;;;82.37;39.90;;;13.30;99.90;;;;;;5115176;28;20184;-50
2023/08/27 03:53:58;;;;;;;18.63;13.17;;;13.30;99.90;;;;;;5114786;28;20185;-50
2023/08/27 03:56:24;;;;;;;42.17;24.60;;;13.30;99.90;;;;;;5114558;28;20180;-50
2023/08/27 03:58:50;;;;;;;37.07;21.87;;;13.40;99.90;;;;;;5114644;28;20432;-50
2023/08/27 04:01:16;;;;;;;50.10;28.17;;;13.30;99.90;;;;;;5114979;28;20418;-51
2023/08/27 04:03:42;;;;;;;29.90;17.13;;;13.30;99.90;;;;;;5114529;28;20774;-50
2023/08/27 04:06:08;;;;;;;36.10;22.17;;;13.30;99.90;;;;;;5114802;28;20619;-50
2023/08/27 04:08:34;;;;;;;41.27;24.47;;;13.30;99.90;;;;;;5114696;28;20405;-50
2023/08/27 04:11:01;;;;;;;27.53;17.43;;;13.30;99.90;;;;;;5114595;28;20182;-50
2023/08/27 04:13:26;;;;;;;56.27;29.20;;;13.30;99.90;;;;;;5114359;28;20187;-50
2023/08/27 04:16:05;;;;;;;20.00;15.00;;;13.30;99.90;;;;;;5114457;28;20507;-49
2023/08/27 04:18:32;;;;;;;66.63;33.00;;;13.30;99.90;;;;;;5114714;28;20180;-49
2023/08/27 04:20:57;;;;;;;45.27;25.87;;;13.30;99.90;;;;;;5114579;28;20469;-50
2023/08/27 04:23:23;;;;;;;30.07;15.43;;;13.30;99.90;;;;;;5113986;28;20472;-50
2023/08/27 04:25:49;;;;;;;20.47;13.30;;;13.30;99.90;;;;;;5114194;28;20179;-50
2023/08/27 04:28:15;;;;;;;17.43;11.77;;;13.30;99.90;;;;;;5114153;28;20178;-50
2023/08/27 04:30:41;;;;;;;13.63;10.50;;;13.30;99.90;;;;;;5114299;28;20196;-50
2023/08/27 04:33:07;;;;;;;20.77;11.83;;;13.30;99.90;;;;;;5114358;28;20424;-50
2023/08/27 04:35:33;;;;;;;14.97;10.53;;;13.30;99.90;;;;;;5114289;28;20410;-49
2023/08/27 04:37:59;;;;;;;14.83;10.33;;;13.30;99.90;;;;;;5114281;28;20183;-51
2023/08/27 04:40:25;;;;;;;11.87;10.13;;;13.30;99.90;;;;;;5114031;28;20652;-50
2023/08/27 04:42:50;;;;;;;17.80;11.03;;;13.30;99.90;;;;;;5113979;28;20187;-50
2023/08/27 04:45:16;;;;;;;13.77;9.83;;;13.30;99.90;;;;;;5113966;28;20176;-50
2023/08/27 04:47:42;;;;;;;9.47;8.10;;;13.30;99.90;;;;;;5113905;28;20183;-50
2023/08/27 04:50:08;;;;;;;16.23;10.70;;;13.30;99.90;;;;;;5113889;28;20244;-53
2023/08/27 04:52:35;;;;;;;14.40;10.30;;;13.20;99.90;;;;;;5113764;28;20271;-50
2023/08/27 04:55:02;;;;;;;13.20;9.30;;;13.20;99.90;;;;;;5114000;28;20468;-50
2023/08/27 04:57:28;;;;;;;15.43;10.23;;;13.20;99.90;;;;;;5114168;28;20411;-51
2023/08/27 04:59:56;;;;;;;14.60;10.53;;;13.30;99.90;;;;;;5113798;28;20514;-49
2023/08/27 05:02:22;;;;;;;11.47;9.10;;;13.30;99.90;;;;;;5113942;28;20239;-50
2023/08/27 05:04:48;;;;;;;10.90;9.07;;;13.20;99.90;;;;;;5114017;28;20429;-49
2023/08/27 05:07:13;;;;;;;11.53;8.90;;;13.20;99.90;;;;;;5113931;28;20187;-50
2023/08/27 05:09:39;;;;;;;11.80;8.83;;;13.20;99.90;;;;;;5113002;28;20258;-50
2023/08/27 05:12:05;;;;;;;21.63;14.60;;;13.20;99.90;;;;;;5113714;28;20545;-50
2023/08/27 05:14:30;;;;;;;75.60;41.33;;;13.20;99.90;;;;;;5113617;28;20179;-50
2023/08/27 05:16:56;;;;;;;87.23;47.77;;;13.20;99.90;;;;;;5113378;28;20189;-50
2023/08/27 05:19:21;;;;;;;45.03;30.17;;;13.30;99.90;;;;;;5113750;28;20207;-52
2023/08/27 05:21:47;;;;;;;37.80;24.40;;;13.30;99.90;;;;;;5113115;28;20644;-50
2023/08/27 05:24:13;;;;;;;19.50;14.10;;;13.40;99.90;;;;;;5114002;28;20168;-50
2023/08/27 05:26:39;;;;;;;41.70;23.77;;;13.50;99.90;;;;;;5113457;28;20429;-50
2023/08/27 05:29:04;;;;;;;34.30;20.20;;;13.60;99.90;;;;;;5113681;28;20185;-49
2023/08/27 05:31:30;;;;;;;27.13;17.20;;;13.70;99.90;;;;;;5113655;28;20175;-50
2023/08/27 05:33:56;;;;;;;21.90;14.17;;;13.80;99.90;;;;;;5113478;28;20582;-50
2023/08/27 05:36:21;;;;;;;23.90;14.43;;;13.90;99.90;;;;;;5113323;28;20204;-51
2023/08/27 05:38:48;;;;;;;13.90;11.93;;;13.90;99.90;;;;;;5113337;28;20527;-50
2023/08/27 05:41:14;;;;;;;21.60;12.40;;;14.00;99.90;;;;;;5113098;28;20226;-50
2023/08/27 05:43:41;;;;;;;14.03;10.93;;;14.10;99.90;;;;;;5113510;28;20418;-52
2023/08/27 05:46:07;;;;;;;12.20;8.77;;;14.30;99.90;;;;;;5113215;28;20644;-51
2023/08/27 05:48:32;;;;;;;8.63;7.70;;;14.40;99.90;;;;;;5113758;28;20421;-51
2023/08/27 05:51:00;;;;;;;10.40;8.70;;;14.50;99.90;;;;;;5113408;28;20650;-51
2023/08/27 05:53:25;;;;;;;8.33;7.53;;;14.60;99.90;;;;;;5113510;28;20270;-51
2023/08/27 05:55:51;;;;;;;8.77;7.87;;;14.70;99.90;;;;;;5113350;28;20497;-51
2023/08/27 05:58:17;;;;;;;13.50;7.70;;;14.80;99.90;;;;;;5113421;28;20639;-50
2023/08/27 06:00:42;;;;;;;8.20;7.23;;;14.90;99.90;;;;;;5113281;28;20597;-52
2023/08/27 06:03:08;;;;;;;7.77;6.70;;;15.00;99.90;;;;;;5113223;28;20172;-51
2023/08/27 06:05:33;;;;;;;6.83;6.23;;;15.00;99.90;;;;;;5113160;28;20186;-51
2023/08/27 06:08:02;;;;;;;7.07;6.30;;;15.10;99.90;;;;;;5113149;28;20180;-51
2023/08/27 06:10:28;;;;;;;7.37;6.00;;;15.10;99.90;;;;;;5113151;28;20191;-50
2023/08/27 06:12:54;;;;;;;9.07;7.03;;;15.10;99.90;;;;;;5112843;28;20893;-51
2023/08/27 06:15:20;;;;;;;8.77;6.30;;;15.10;99.90;;;;;;5113001;28;20237;-51
2023/08/27 06:17:45;;;;;;;7.27;6.67;;;15.20;99.90;;;;;;5113207;28;20412;-51
2023/08/27 06:20:11;;;;;;;8.03;6.40;;;15.20;99.90;;;;;;5113838;28;20207;-51
2023/08/27 06:22:37;;;;;;;9.70;6.87;;;15.30;99.90;;;;;;5116353;28;20231;-52
2023/08/27 06:25:03;;;;;;;9.50;7.10;;;15.30;91.70;;;;;;5116900;28;20180;-51
2023/08/27 06:27:29;;;;;;;17.90;7.80;;;15.30;96.80;;;;;;5116779;28;20544;-50
2023/08/27 06:29:54;;;;;;;8.40;6.23;;;15.40;83.70;;;;;;5116637;28;20421;-51
2023/08/27 06:32:20;;;;;;;8.17;7.37;;;15.60;42.30;;;;;;5116502;28;20228;-51
2023/08/27 06:34:46;;;;;;;8.10;7.30;;;15.70;1.00;;;;;;5116721;28;20188;-52
2023/08/27 06:37:11;;;;;;;9.00;6.97;;;15.90;1.00;;;;;;5116573;28;20184;-51
2023/08/27 06:39:37;;;;;;;7.43;6.73;;;16.10;1.00;;;;;;5116369;28;20709;-51
2023/08/27 06:42:03;;;;;;;7.77;6.97;;;16.30;1.00;;;;;;5116293;28;20184;-51
2023/08/27 06:44:28;;;;;;;7.93;6.53;;;16.50;1.00;;;;;;5116447;28;20205;-51
2023/08/27 06:46:54;;;;;;;8.97;6.57;;;16.50;1.00;;;;;;5116355;28;20230;-52
2023/08/27 06:49:20;;;;;;;6.77;6.00;;;16.50;99.90;;;;;;5116061;28;20187;-51
2023/08/27 06:51:45;;;;;;;9.17;6.60;;;16.60;91.80;;;;;;5115902;28;20183;-51
2023/08/27 06:54:11;;;;;;;7.60;5.80;;;16.50;99.90;;;;;;5116047;28;20180;-51
2023/08/27 06:56:36;;;;;;;7.33;6.33;;;16.50;1.00;;;;;;5116009;28;20184;-51
2023/08/27 06:59:02;;;;;;;7.20;6.50;;;16.40;1.00;;;;;;5115663;28;20185;-52
2023/08/27 07:01:27;;;;;;;8.40;6.20;;;16.30;1.00;;;;;;5116069;28;20180;-53
2023/08/27 07:03:53;;;;;;;7.00;6.40;;;16.30;21.20;;;;;;5097407;28;20181;-51
2023/08/27 07:06:20;;;;;;;7.47;6.67;;;16.40;99.90;;;;;;5116143;28;20176;-52
2023/08/27 07:08:45;;;;;;;10.00;6.90;;;16.50;99.90;;;;;;5115867;28;20184;-52
2023/08/27 07:11:11;;;;;;;9.70;6.70;;;16.90;99.90;;;;;;5116111;28;20418;-52
2023/08/27 07:13:37;;;;;;;7.27;5.90;;;17.50;86.60;;;;;;5115954;28;20178;-52
2023/08/27 07:16:03;;;;;;;7.80;5.73;;;18.10;99.90;;;;;;5116053;28;20463;-52
2023/08/27 07:18:29;;;;;;;5.90;5.30;;;18.70;1.00;;;;;;5115572;28;20849;-52
2023/08/27 07:20:55;;;;;;;5.03;4.63;;;19.20;99.90;;;;;;5115357;28;20258;-52
2023/08/27 07:23:20;;;;;;;7.37;4.93;;;19.50;99.90;;;;;;5115281;28;20854;-52
2023/08/27 07:25:46;;;;;;;5.50;4.50;;;19.60;62.20;;;;;;5115700;28;20180;-51
2023/08/27 07:28:11;;;;;;;4.20;3.80;;;19.90;92.00;;;;;;5115460;28;20175;-52
2023/08/27 07:30:37;;;;;;;5.40;4.90;;;20.20;1.00;;;;;;5115390;28;20191;-52
2023/08/27 07:33:06;;;;;;;10.87;4.30;;;20.40;1.00;;;;;;5114260;28;20543;-53
2023/08/27 07:35:31;;;;;;;4.00;3.70;;;20.70;1.00;;;;;;5115078;28;20488;-51
2023/08/27 07:37:58;;;;;;;5.57;4.30;;;21.10;1.00;;;;;;5115266;28;20497;-52
2023/08/27 07:40:23;;;;;;;5.23;4.17;;;21.10;1.00;;;;;;5114875;28;20219;-53
2023/08/27 07:42:50;;;;;;;6.07;4.10;;;21.20;1.00;;;;;;5114475;28;20505;-52
2023/08/27 07:45:16;;;;;;;6.20;3.80;;;21.10;1.00;;;;;;5114824;28;20646;-52
2023/08/27 07:47:41;;;;;;;4.80;3.70;;;21.10;1.00;;;;;;5115222;28;20416;-53
2023/08/27 07:50:07;;;;;;;4.80;3.90;;;21.30;1.00;;;;;;5114946;28;20184;-54
2023/08/27 07:52:33;;;;;;;4.47;3.97;;;21.60;1.00;;;;;;5114695;28;20211;-52
2023/08/27 07:54:59;;;;;;;4.33;3.93;;;21.80;1.00;;;;;;5114737;28;20417;-54
2023/08/27 07:57:25;;;;;;;12.10;4.10;;;21.90;1.00;;;;;;5115104;28;20207;-53
2023/08/27 07:59:51;;;;;;;6.33;4.83;;;21.50;1.00;;;;;;5114578;28;20211;-52
2023/08/27 08:02:18;;;;;;;10.10;4.10;;;21.20;1.00;;;;;;5114486;28;20414;-53
2023/08/27 08:04:43;;;;;;;4.57;4.23;;;20.60;1.00;;;;;;5114483;28;20912;-52
2023/08/27 08:07:09;;;;;;;5.70;4.87;;;20.40;1.00;;;;;;5115060;28;20467;-53
2023/08/27 08:09:35;;;;;;;5.03;4.63;;;20.50;1.00;;;;;;5114613;28;20180;-53
2023/08/27 08:12:00;;;;;;;5.50;4.60;;;20.80;1.00;;;;;;5114873;28;20240;-54
2023/08/27 08:14:26;;;;;;;5.63;4.60;;;20.80;1.00;;;;;;5114397;28;20668;-53
2023/08/27 08:16:53;;;;;;;6.00;4.80;;;21.10;1.00;;;;;;5114730;28;20180;-53
2023/08/27 08:19:19;;;;;;;4.83;4.20;;;21.70;1.00;;;;;;5114676;28;20224;-53
2023/08/27 08:21:45;;;;;;;4.90;3.87;;;22.00;1.00;;;;;;5114360;28;20470;-52
2023/08/27 08:24:10;;;;;;;6.40;4.67;;;22.50;1.00;;;;;;5114497;28;20472;-53
2023/08/27 08:26:36;;;;;;;5.93;4.83;;;23.00;1.00;;;;;;5114250;28;20173;-54
2023/08/27 08:29:02;;;;;;;5.93;4.10;;;23.20;1.00;;;;;;5114311;28;20180;-53
2023/08/27 08:31:28;;;;;;;4.43;4.03;;;23.50;1.00;;;;;;5114171;28;20188;-52
2023/08/27 08:33:53;;;;;;;4.87;4.00;;;23.50;1.00;;;;;;5114370;28;20414;-52
2023/08/27 08:36:19;;;;;;;3.97;3.40;;;23.20;1.00;;;;;;5114195;28;20176;-53
2023/08/27 08:38:44;;;;;;;7.57;4.10;;;23.00;1.00;;;;;;5114242;28;20177;-53
2023/08/27 08:41:13;;;;;;;8.20;4.20;;;22.70;1.00;;;;;;5114086;28;20209;-51
2023/08/27 08:43:45;;;;;;;4.90;4.00;;;22.50;1.00;;;;;;5113825;28;20188;-51
2023/08/27 08:46:13;;;;;;;7.10;3.77;;;22.40;1.00;;;;;;5114109;28;20734;-51
2023/08/27 08:48:41;;;;;;;5.27;4.00;;;22.20;1.00;;;;;;5114255;28;20422;-53
2023/08/27 08:51:12;;;;;;;6.27;4.00;;;22.20;1.00;;;;;;5114102;28;20768;-51
2023/08/27 08:53:43;;;;;;;8.17;4.17;;;22.50;1.00;;;;;;5114103;28;20898;-51
2023/08/27 08:56:14;;;;;;;5.27;3.67;;;23.10;1.00;;;;;;5113715;28;20431;-54
2023/08/27 08:58:43;;;;;;;5.40;3.63;;;23.70;1.00;;;;;;5113690;28;20937;-51
2023/08/27 09:01:09;;;;;;;5.23;3.67;;;24.10;1.00;;;;;;5113741;28;20499;-51
2023/08/27 09:03:36;;;;;;;9.07;3.70;;;24.40;1.00;;;;;;5113804;28;20946;-51
2023/08/27 09:06:03;;;;;;;4.33;3.40;;;24.70;1.00;;;;;;5114036;28;20410;-52
2023/08/27 09:08:31;;;;;;;5.23;3.97;;;24.70;1.00;;;;;;5113794;28;20411;-52
2023/08/27 09:10:56;;;;;;;10.23;3.90;;;24.60;1.00;;;;;;5113939;28;20423;-51
2023/08/27 09:13:22;;;;;;;5.10;3.73;;;24.30;1.00;;;;;;5113961;28;20409;-51
2023/08/27 09:15:48;;;;;;;4.03;3.40;;;24.00;1.00;;;;;;5113914;28;20651;-51
2023/08/27 09:18:15;;;;;;;5.37;3.63;;;23.80;1.00;;;;;;5113636;28;20181;-51
2023/08/27 09:20:41;;;;;;;5.77;3.50;;;23.70;1.00;;;;;;5113282;28;20454;-51
2023/08/27 09:23:09;;;;;;;8.60;3.70;;;23.60;1.00;;;;;;5113480;28;20466;-52
2023/08/27 09:25:38;;;;;;;5.83;3.53;;;23.40;1.00;;;;;;5113802;28;20430;-52
2023/08/27 09:28:05;;;;;;;5.60;3.60;;;23.40;1.00;;;;;;5113541;28;20410;-52
2023/08/27 09:30:31;;;;;;;7.93;3.60;;;23.50;1.00;;;;;;5113389;28;20430;-52
2023/08/27 09:32:57;;;;;;;5.03;4.53;;;23.70;1.00;;;;;;5113309;28;20419;-52
2023/08/27 09:35:23;;;;;;;6.93;4.20;;;23.70;1.00;;;;;;5113960;28;20181;-52
2023/08/27 09:37:49;;;;;;;5.87;3.77;;;23.60;1.00;;;;;;5113478;28;20422;-52
2023/08/27 09:40:18;;;;;;;8.80;4.57;;;23.60;1.00;;;;;;5113483;28;20269;-52
2023/08/27 09:42:44;;;;;;;7.93;4.07;;;23.40;1.00;;;;;;5113419;28;20504;-53
2023/08/27 09:45:10;;;;;;;3.93;3.53;;;23.20;1.00;;;;;;5113517;28;20500;-52
2023/08/27 09:47:38;;;;;;;9.50;4.10;;;23.10;1.00;;;;;;5113355;28;20608;-53
2023/08/27 09:50:06;;;;;;;9.43;4.50;;;23.00;1.00;;;;;;5113216;28;20561;-52
2023/08/27 09:52:32;;;;;;;9.93;5.13;;;22.90;1.00;;;;;;5113425;28;20435;-53
2023/08/27 09:54:57;;;;;;;12.27;4.53;;;23.00;1.00;;;;;;5113766;28;21000;-52
2023/08/27 09:57:23;;;;;;;11.43;4.60;;;22.80;1.00;;;;;;5117262;28;20229;-52
2023/08/27 09:59:48;;;;;;;4.93;4.20;;;22.90;1.00;;;;;;5117039;28;20303;-52
2023/08/27 10:02:15;;;;;;;5.63;4.20;;;23.00;1.00;;;;;;5117189;28;20552;-53
2023/08/27 10:04:55;;;;;;;5.53;4.13;;;23.00;1.00;;;;;;5117220;28;20176;-52
2023/08/27 10:07:21;;;;;;;6.07;4.00;;;23.10;1.00;;;;;;5117179;28;20459;-52
2023/08/27 10:09:53;;;;;;;4.53;3.90;;;23.20;1.00;;;;;;5116778;28;20414;-53
2023/08/27 10:12:21;;;;;;;6.67;3.80;;;23.30;1.00;;;;;;5117036;28;20410;-52
2023/08/27 10:14:47;;;;;;;3.63;3.33;;;23.40;1.00;;;;;;5117011;28;20442;-52
2023/08/27 10:17:14;;;;;;;6.27;3.70;;;23.50;1.00;;;;;;5116970;28;20415;-52
2023/08/27 10:19:40;;;;;;;4.87;3.90;;;23.50;1.00;;;;;;5116615;28;20469;-52
2023/08/27 10:22:06;;;;;;;10.47;4.30;;;23.40;1.00;;;;;;5116770;28;20466;-52
2023/08/27 10:24:33;;;;;;;6.10;3.57;;;23.50;1.00;;;;;;5116878;28;20411;-53
2023/08/27 10:27:01;;;;;;;4.60;4.20;;;23.60;1.00;;;;;;5116395;28;20411;-53
2023/08/27 10:29:30;;;;;;;4.03;3.60;;;23.60;1.00;;;;;;5116844;28;20414;-53
2023/08/27 10:31:57;;;;;;;6.50;3.93;;;23.70;1.00;;;;;;5116291;28;20730;-52
2023/08/27 10:34:23;;;;;;;5.80;4.33;;;23.70;1.00;;;;;;5116497;28;20449;-52
2023/08/27 10:36:51;;;;;;;6.40;4.37;;;23.70;1.00;;;;;;5116705;28;20414;-53
2023/08/27 10:39:25;;;;;;;7.07;4.70;;;23.70;1.00;;;;;;5116353;28;20422;-53
2023/08/27 10:41:51;;;;;;;10.23;4.37;;;23.70;1.00;;;;;;5116691;28;20479;-52
2023/08/27 10:44:20;;;;;;;8.23;4.50;;;23.50;1.00;;;;;;5116352;28;20435;-52
2023/08/27 10:47:11;;;;;;;8.23;4.27;;;23.40;1.00;;;;;;5116661;28;20419;-54
2023/08/27 10:49:38;;;;;;;8.33;3.50;;;23.20;1.00;;;;;;5116313;28;20544;-53
2023/08/27 10:52:20;;;;;;;8.23;4.20;;;23.30;1.00;;;;;;5116336;28;20433;-52
2023/08/27 10:54:47;;;;;;;5.77;3.80;;;23.10;1.00;;;;;;5116160;28;20425;-54
2023/08/27 10:57:20;;;;;;;5.60;3.23;;;23.10;1.00;;;;;;5115890;28;20418;-52
2023/08/27 10:59:46;;;;;;;4.80;3.60;;;23.10;1.00;;;;;;5116118;28;20447;-52
2023/08/27 11:02:12;;;;;;;5.83;3.73;;;23.10;1.00;;;;;;5115779;28;20811;-52
2023/08/27 11:04:40;;;;;;;5.07;3.33;;;23.20;1.00;;;;;;5116102;28;20181;-52
2023/08/27 11:07:17;;;;;;;7.20;3.90;;;23.30;1.00;;;;;;5116004;28;20890;-52
2023/08/27 11:09:49;;;;;;;7.47;4.13;;;23.40;1.00;;;;;;5115919;28;20391;-52
2023/08/27 11:12:35;;;;;;;6.17;2.97;;;23.40;1.00;;;;;;5116041;28;20461;-52
2023/08/27 11:15:12;;;;;;;6.80;3.30;;;23.30;1.00;;;;;;5116098;28;20415;-52
2023/08/27 11:17:39;;;;;;;5.87;2.87;;;23.20;1.00;;;;;;5115951;28;21034;-52
2023/08/27 11:20:24;;;;;;;3.23;2.93;;;23.20;1.00;;;;;;5115788;28;20454;-53
2023/08/27 11:23:01;;;;;;;4.57;2.80;;;23.10;1.00;;;;;;5115283;28;20462;-52
2023/08/27 11:25:31;;;;;;;4.73;2.90;;;22.80;1.00;;;;;;5115891;28;20775;-53
2023/08/27 11:28:00;;;;;;;5.63;3.40;;;22.60;1.00;;;;;;5115318;28;20426;-53
2023/08/27 11:30:26;;;;;;;3.50;3.20;;;22.50;1.00;;;;;;5115813;28;20434;-52
2023/08/27 11:32:54;;;;;;;4.00;3.20;;;22.30;1.00;;;;;;5115623;28;20437;-52
2023/08/27 11:35:28;;;;;;;3.10;2.80;;;22.00;1.00;;;;;;5115024;28;20906;-52
2023/08/27 11:37:55;;;;;;;3.50;3.20;;;21.90;1.00;;;;;;5115409;28;20398;-52
2023/08/27 11:40:22;;;;;;;3.80;3.03;;;21.70;1.00;;;;;;5115323;28;20792;-52
2023/08/27 11:42:52;;;;;;;4.90;2.73;;;21.50;1.00;;;;;;5114859;28;20426;-52
2023/08/27 11:45:29;;;;;;;6.70;3.50;;;21.30;1.00;;;;;;5115529;28;20413;-52
2023/08/27 11:47:55;;;;;;;4.03;2.80;;;21.10;1.00;;;;;;5115028;28;20398;-53
2023/08/27 11:50:21;;;;;;;2.70;2.50;;;21.00;1.00;;;;;;5114860;28;20423;-53
2023/08/27 11:52:47;;;;;;;4.00;2.77;;;20.80;1.00;;;;;;5114335;28;20505;-52
2023/08/27 11:55:13;;;;;;;6.93;3.43;;;20.80;1.00;;;;;;5112542;28;20934;-52
2023/08/27 11:57:39;;;;;;;4.20;2.77;;;20.80;1.00;;;;;;5113289;28;20180;-52
2023/08/27 12:00:11;;;;;;;3.33;2.60;;;20.70;1.00;;;;;;5113523;28;20520;-51
2023/08/27 12:02:38;;;;;;;4.50;3.30;;;20.50;1.00;;;;;;5094836;28;20590;-54
2023/08/27 12:05:05;;;;;;;9.10;3.03;;;20.50;1.00;;;;;;5113382;28;20811;-54
2023/08/27 12:07:32;;;;;;;5.77;4.23;;;20.50;1.00;;;;;;5114141;28;20461;-53
2023/08/27 12:10:01;;;;;;;10.93;4.80;;;20.10;1.00;;;;;;5114912;28;20437;-53
2023/08/27 12:12:27;;;;;;;7.83;6.27;;;19.40;1.00;;;;;;5114617;28;20458;-54
2023/08/27 12:14:53;;;;;;;8.57;5.63;;;18.80;1.00;;;;;;5114568;28;20412;-53
2023/08/27 12:17:20;;;;;;;11.77;5.37;;;18.30;1.00;;;;;;5114318;28;20417;-53
2023/08/27 12:19:46;;;;;;;8.43;5.60;;;17.80;96.40;;;;;;5113880;28;20249;-53
2023/08/27 12:22:17;;;;;;;12.90;6.80;;;17.40;99.90;;;;;;5113874;28;20459;-54
2023/08/27 12:24:44;;;;;;;7.00;5.10;;;17.10;1.00;;;;;;5114200;28;20407;-53
2023/08/27 12:27:20;;;;;;;5.03;4.57;;;16.90;1.00;;;;;;5114326;28;20423;-55
2023/08/27 12:29:46;;;;;;;5.13;4.63;;;16.70;57.20;;;;;;5114419;28;20422;-53
2023/08/27 12:32:17;;;;;;;5.90;5.13;;;16.50;99.90;;;;;;5114014;28;20482;-52
2023/08/27 12:34:47;;;;;;;5.73;4.30;;;16.60;99.90;;;;;;5114085;28;20424;-53
2023/08/27 12:37:15;;;;;;;5.80;4.07;;;16.70;1.00;;;;;;5114099;28;20424;-53
2023/08/27 12:39:42;;;;;;;3.80;3.40;;;16.90;1.00;;;;;;5114299;28;20465;-53
2023/08/27 12:42:09;;;;;;;3.40;3.10;;;17.10;99.90;;;;;;5114146;28;20414;-55